createdAt,value
2022-09-04T00:00:54.051Z,88
2022-09-04T00:04:19.415Z,88
2022-09-04T00:07:44.432Z,88
2022-09-04T00:11:09.693Z,88
2022-09-04T00:14:34.811Z,88
2022-09-04T00:17:59.982Z,89
2022-09-04T00:21:25.196Z,88
2022-09-04T00:24:50.383Z,89
2022-09-04T00:28:15.633Z,88
2022-09-04T00:31:40.804Z,88
2022-09-04T00:35:05.990Z,88
2022-09-04T00:38:31.177Z,88
2022-09-04T00:41:56.358Z,88
2022-09-04T00:45:21.528Z,88
2022-09-04T00:48:46.718Z,87
2022-09-04T00:52:11.895Z,87
2022-09-04T00:55:37.088Z,87
2022-09-04T00:59:02.272Z,87
2022-09-04T01:02:27.502Z,87
2022-09-04T01:05:52.623Z,87
2022-09-04T01:09:17.802Z,88
2022-09-04T01:12:42.982Z,88
2022-09-04T01:16:08.200Z,88
2022-09-04T01:19:33.342Z,88
2022-09-04T01:22:58.518Z,89
2022-09-04T01:26:23.712Z,88
2022-09-04T01:29:48.890Z,88
2022-09-04T01:33:14.058Z,88
2022-09-04T01:36:39.218Z,87
2022-09-04T01:40:04.467Z,88
2022-09-04T01:43:29.599Z,89
2022-09-04T01:46:54.803Z,88
2022-09-04T01:50:19.965Z,88
2022-09-04T01:53:45.164Z,88
2022-09-04T01:57:10.335Z,88
2022-09-04T02:00:35.517Z,88
2022-09-04T02:04:00.701Z,88
2022-09-04T02:07:25.864Z,88
2022-09-04T02:10:51.043Z,88
2022-09-04T02:14:16.228Z,88
2022-09-04T02:17:41.396Z,89
2022-09-04T02:21:06.584Z,89
2022-09-04T02:24:31.773Z,89
2022-09-04T02:27:56.957Z,90
2022-09-04T02:31:22.133Z,89
2022-09-04T02:34:47.284Z,89
2022-09-04T02:38:12.462Z,88
2022-09-04T02:41:37.628Z,88
2022-09-04T02:45:02.849Z,88
2022-09-04T02:48:28.028Z,88
2022-09-04T02:51:53.209Z,89
2022-09-04T02:55:18.371Z,89
2022-09-04T02:58:43.557Z,88
2022-09-04T03:02:08.761Z,88
2022-09-04T03:05:33.884Z,89
2022-09-04T03:08:59.061Z,89
2022-09-04T03:12:24.234Z,89
2022-09-04T03:15:49.512Z,88
2022-09-04T03:19:16.397Z,90
2022-09-04T03:22:39.847Z,90
2022-09-04T03:26:05.039Z,89
2022-09-04T03:29:30.237Z,89
2022-09-04T03:32:55.416Z,89
2022-09-04T03:36:20.620Z,88
2022-09-04T03:39:45.888Z,87
2022-09-04T03:43:10.989Z,88
2022-09-04T03:46:36.222Z,88
2022-09-04T03:50:01.363Z,88
2022-09-04T03:53:26.548Z,87
2022-09-04T03:56:51.730Z,87
2022-09-04T04:00:16.923Z,87
2022-09-04T04:03:46.146Z,87
2022-09-04T04:07:11.367Z,87
2022-09-04T04:10:36.529Z,87
2022-09-04T04:14:01.711Z,88
2022-09-04T04:17:26.881Z,88
2022-09-04T04:20:52.142Z,88
2022-09-04T04:24:17.327Z,88
2022-09-04T04:27:42.499Z,88
2022-09-04T04:31:07.761Z,88
2022-09-04T04:34:32.908Z,88
2022-09-04T04:37:58.100Z,88
2022-09-04T04:41:23.265Z,88
2022-09-04T04:44:48.429Z,88
2022-09-04T04:48:13.667Z,89
2022-09-04T04:51:38.837Z,89
2022-09-04T04:55:04.047Z,88
2022-09-04T04:58:29.244Z,87
2022-09-04T05:01:54.515Z,87
2022-09-04T05:05:19.601Z,88
2022-09-04T05:08:44.804Z,89
2022-09-04T05:12:10.037Z,90
2022-09-04T05:15:40.639Z,90
2022-09-04T05:19:00.499Z,91
2022-09-04T05:22:25.659Z,91
2022-09-04T05:25:50.827Z,90
2022-09-04T05:29:16.015Z,91
2022-09-04T05:32:41.206Z,92
2022-09-04T05:36:06.484Z,92
2022-09-04T05:39:31.765Z,93
2022-09-04T05:42:56.967Z,92
2022-09-04T05:46:22.221Z,92
2022-09-04T05:49:47.352Z,91
2022-09-04T05:53:12.561Z,91
2022-09-04T05:56:37.782Z,91
2022-09-04T06:00:02.988Z,92
2022-09-04T06:03:28.251Z,93
2022-09-04T06:06:53.416Z,94
2022-09-04T06:10:18.592Z,93
2022-09-04T06:13:43.818Z,93
2022-09-04T06:17:09.009Z,93
2022-09-04T06:20:34.184Z,92
2022-09-04T06:23:59.372Z,92
2022-09-04T06:27:24.535Z,92
2022-09-04T06:30:49.739Z,92
2022-09-04T06:34:17.214Z,92
2022-09-04T06:37:40.060Z,92
2022-09-04T06:41:05.244Z,93
2022-09-04T06:44:30.450Z,93
2022-09-04T06:47:55.635Z,92
2022-09-04T06:51:20.807Z,93
2022-09-04T06:54:45.994Z,93
2022-09-04T06:58:11.170Z,93
2022-09-04T07:01:36.451Z,93
2022-09-04T07:05:01.573Z,92
2022-09-04T07:08:26.752Z,93
2022-09-04T07:11:51.943Z,92
2022-09-04T07:15:17.096Z,92
2022-09-04T07:18:42.283Z,93
2022-09-04T07:22:07.445Z,92
2022-09-04T07:25:32.619Z,92
2022-09-04T07:28:57.809Z,90
2022-09-04T07:32:22.980Z,89
2022-09-04T07:35:48.172Z,89
2022-09-04T07:39:13.353Z,89
2022-09-04T07:42:38.546Z,89
2022-09-04T07:46:03.756Z,87
2022-09-04T07:49:28.911Z,87
2022-09-04T07:52:54.084Z,85
2022-09-04T07:56:19.347Z,84
2022-09-04T07:59:44.523Z,84
2022-09-04T08:03:09.689Z,85
2022-09-04T08:06:34.899Z,84
2022-09-04T08:10:00.093Z,82
2022-09-04T08:13:25.250Z,81
2022-09-04T08:16:50.421Z,80
2022-09-04T08:20:15.616Z,81
2022-09-04T08:23:40.785Z,81
2022-09-04T08:27:06.018Z,82
2022-09-04T08:30:31.203Z,82
2022-09-04T08:33:56.393Z,82
2022-09-04T08:37:21.579Z,83
2022-09-04T08:40:46.784Z,82
2022-09-04T08:44:11.984Z,82
2022-09-04T08:47:37.162Z,81
2022-09-04T08:51:02.436Z,80
2022-09-04T08:54:27.615Z,80
2022-09-04T08:57:52.789Z,81
2022-09-04T09:01:18.022Z,80
2022-09-04T09:04:43.161Z,79
2022-09-04T09:08:08.350Z,80
2022-09-04T09:11:33.540Z,80
2022-09-04T09:14:58.698Z,81
2022-09-04T09:18:23.885Z,81
2022-09-04T09:21:49.070Z,79
2022-09-04T09:25:14.260Z,80
2022-09-04T09:28:39.422Z,80
2022-09-04T09:32:04.622Z,79
2022-09-04T09:35:29.788Z,79
2022-09-04T09:38:54.973Z,76
2022-09-04T09:42:20.167Z,81
2022-09-04T09:45:45.394Z,79
2022-09-04T09:49:13.976Z,78
2022-09-04T09:52:35.719Z,77
2022-09-04T09:56:00.902Z,77
2022-09-04T09:59:26.086Z,76
2022-09-04T10:02:51.308Z,76
2022-09-04T10:06:16.445Z,74
2022-09-04T10:09:41.632Z,72
2022-09-04T10:13:06.797Z,71
2022-09-04T10:16:32.054Z,73
2022-09-04T10:19:57.206Z,75
2022-09-04T10:23:22.523Z,74
2022-09-04T10:26:47.628Z,72
2022-09-04T10:30:12.877Z,74
2022-09-04T10:33:38.066Z,70
2022-09-04T10:37:03.266Z,72
2022-09-04T10:40:28.444Z,69
2022-09-04T10:43:53.778Z,73
2022-09-04T10:47:18.980Z,69
2022-09-04T10:50:44.171Z,72
2022-09-04T10:54:09.330Z,70
2022-09-04T10:57:34.527Z,70
2022-09-04T11:00:59.746Z,71
2022-09-04T11:04:24.946Z,72
2022-09-04T11:07:50.150Z,70
2022-09-04T11:11:15.320Z,71
2022-09-04T11:14:40.543Z,71
2022-09-04T11:18:05.736Z,70
2022-09-04T11:21:30.974Z,70
2022-09-04T11:24:56.200Z,70
2022-09-04T11:28:21.411Z,70
2022-09-04T11:31:46.658Z,70
2022-09-04T11:35:11.859Z,68
2022-09-04T11:38:37.061Z,69
2022-09-04T11:42:02.261Z,68
2022-09-04T11:45:27.519Z,70
2022-09-04T11:48:52.731Z,70
2022-09-04T11:52:17.929Z,68
2022-09-04T11:55:43.168Z,70
2022-09-04T11:59:08.357Z,69
2022-09-04T12:02:33.614Z,73
2022-09-04T12:05:58.792Z,72
2022-09-04T12:09:24.027Z,71
2022-09-04T12:12:49.259Z,71
2022-09-04T12:16:14.623Z,71
2022-09-04T12:19:39.727Z,71
2022-09-04T12:23:04.943Z,71
2022-09-04T12:26:30.189Z,71
2022-09-04T12:29:55.355Z,73
2022-09-04T12:33:20.581Z,72
2022-09-04T12:36:45.791Z,70
2022-09-04T12:40:11.097Z,69
2022-09-04T12:43:36.897Z,71
2022-09-04T12:47:01.428Z,71
2022-09-04T12:50:26.652Z,73
2022-09-04T12:53:52.886Z,71
2022-09-04T12:57:17.060Z,70
2022-09-04T13:00:48.361Z,72
2022-09-04T13:04:07.517Z,74
2022-09-04T13:07:32.693Z,71
2022-09-04T13:10:57.895Z,71
2022-09-04T13:14:23.113Z,75
2022-09-04T13:17:48.305Z,71
2022-09-04T13:21:13.538Z,74
2022-09-04T13:24:42.298Z,76
2022-09-04T13:28:04.004Z,72
2022-09-04T13:31:29.266Z,75
2022-09-04T13:34:54.434Z,72
2022-09-04T13:38:19.648Z,74
2022-09-04T13:41:44.839Z,71
2022-09-04T13:45:10.056Z,72
2022-09-04T13:48:35.250Z,74
2022-09-04T13:52:00.477Z,74
2022-09-04T13:55:25.680Z,75
2022-09-04T13:58:50.914Z,70
2022-09-04T14:02:16.122Z,69
2022-09-04T14:05:41.351Z,71
2022-09-04T14:09:06.547Z,74
2022-09-04T14:12:31.775Z,73
2022-09-04T14:15:57.061Z,72
2022-09-04T14:19:22.227Z,75
2022-09-04T14:22:47.413Z,75
2022-09-04T14:26:12.619Z,74
2022-09-04T14:29:37.828Z,69
2022-09-04T15:05:49.449Z,69
2022-09-04T15:09:14.647Z,67
2022-09-04T15:12:39.828Z,72
2022-09-04T15:16:05.050Z,73
2022-09-04T15:19:30.330Z,69
2022-09-04T15:22:55.525Z,72
2022-09-04T15:26:20.785Z,72
2022-09-04T15:29:46.020Z,72
2022-09-04T15:33:11.317Z,72
2022-09-04T15:36:38.390Z,70
2022-09-04T15:40:04.046Z,73
2022-09-04T15:43:29.069Z,74
2022-09-04T15:46:54.267Z,74
2022-09-04T15:50:19.434Z,74
2022-09-04T15:54:16.695Z,72
2022-09-04T15:57:41.886Z,72
2022-09-04T16:01:10.489Z,71
2022-09-04T16:04:35.709Z,71
2022-09-04T16:08:00.927Z,71
2022-09-04T16:11:26.178Z,71
2022-09-04T16:14:51.393Z,71
2022-09-04T16:18:16.737Z,72
2022-09-04T16:21:42.053Z,73
2022-09-04T16:25:07.310Z,76
2022-09-04T16:28:32.398Z,75
2022-09-04T16:31:57.579Z,74
2022-09-04T16:35:22.783Z,76
2022-09-04T16:38:47.959Z,76
2022-09-04T16:42:13.167Z,74
2022-09-04T16:45:38.339Z,75
2022-09-04T16:49:03.575Z,77
2022-09-04T16:52:28.859Z,75
2022-09-04T16:56:18.931Z,74
2022-09-04T16:59:45.923Z,74
2022-09-04T17:03:09.329Z,74
2022-09-04T17:06:34.738Z,74
2022-09-04T17:09:59.911Z,75
2022-09-04T17:13:27.013Z,74
2022-09-04T17:16:50.579Z,73
2022-09-04T17:20:16.264Z,74
2022-09-04T17:27:41.884Z,74
2022-09-04T17:29:06.694Z,74
2022-09-04T17:30:31.843Z,74
2022-09-04T17:37:46.191Z,75
2022-09-04T17:40:45.187Z,73
2022-09-04T17:41:35.127Z,73
2022-09-04T17:44:12.597Z,72
2022-09-04T17:47:37.765Z,73
2022-09-04T17:51:03.015Z,73
2022-09-04T17:54:28.203Z,74
2022-09-04T17:57:53.428Z,75
2022-09-04T18:01:19.285Z,76
2022-09-04T18:04:45.299Z,75
2022-09-04T18:08:10.852Z,75
2022-09-04T18:11:35.985Z,76
2022-09-04T18:15:12.883Z,76
2022-09-04T18:18:26.746Z,76
2022-09-04T18:21:54.043Z,77
2022-09-04T18:25:17.838Z,78
2022-09-04T18:28:42.258Z,80
2022-09-04T18:36:15.600Z,79
2022-09-04T18:37:15.059Z,80
2022-09-04T18:39:08.613Z,80
2022-09-04T18:43:50.966Z,80
2022-09-04T18:50:27.172Z,80
2022-09-04T18:50:27.353Z,79
2022-09-04T18:52:39.215Z,80
2022-09-04T18:56:04.545Z,81
2022-09-04T18:59:29.796Z,81
2022-09-04T19:02:55.137Z,81
2022-09-04T19:06:20.443Z,81
2022-09-04T19:09:48.739Z,81
2022-09-04T19:13:10.916Z,82
2022-09-04T19:16:36.196Z,82
2022-09-04T19:20:01.417Z,82
2022-09-04T19:23:26.736Z,82
2022-09-04T19:26:51.974Z,82
2022-09-04T19:30:17.909Z,82
2022-09-04T19:33:42.541Z,83
2022-09-04T19:37:19.063Z,82
2022-09-04T19:44:36.712Z,82
2022-09-04T19:46:09.993Z,83
2022-09-04T19:47:27.784Z,83
2022-09-04T19:52:25.539Z,83
2022-09-04T19:54:14.106Z,83
2022-09-04T19:57:39.388Z,83
2022-09-04T20:01:04.681Z,83
2022-09-04T20:04:29.850Z,83
2022-09-04T20:07:54.970Z,83
2022-09-04T20:11:27.390Z,83
2022-09-04T20:14:45.324Z,84
2022-09-04T20:18:10.526Z,83
2022-09-04T20:21:35.735Z,84
2022-09-04T20:25:01.970Z,84
2022-09-04T20:28:26.127Z,84
2022-09-04T20:31:51.363Z,84
2022-09-04T20:35:19.250Z,84
2022-09-04T20:38:41.736Z,84
2022-09-04T20:42:06.917Z,85
2022-09-04T20:46:03.667Z,85
2022-09-04T20:52:46.770Z,85
2022-09-04T20:52:46.820Z,85
2022-09-04T20:55:47.662Z,85
2022-09-04T21:03:06.854Z,85
2022-09-04T21:03:16.055Z,84
2022-09-04T21:06:06.109Z,84
2022-09-04T21:09:28.388Z,84
2022-09-04T21:13:10.889Z,84
2022-09-04T21:16:18.892Z,84
2022-09-04T21:19:44.061Z,85
2022-09-04T21:23:09.306Z,84
2022-09-04T21:26:36.642Z,84
2022-09-04T21:29:59.652Z,85
2022-09-04T21:33:27.390Z,85
2022-09-04T21:36:50.051Z,85
2022-09-04T21:40:21.314Z,85
2022-09-04T21:43:40.441Z,85
2022-09-04T21:47:07.438Z,85
2022-09-04T21:50:30.798Z,85
2022-09-04T21:53:55.981Z,85
2022-09-04T21:59:46.586Z,85
2022-09-04T22:02:34.665Z,85
2022-09-04T22:04:11.669Z,85
2022-09-04T22:08:54.725Z,85
2022-09-04T22:13:35.936Z,85
2022-09-04T22:14:27.076Z,86
2022-09-04T22:17:52.920Z,85
2022-09-04T22:21:17.489Z,85
2022-09-04T22:24:42.676Z,85
2022-09-04T22:28:09.655Z,85
2022-09-04T22:31:33.123Z,85
2022-09-04T22:34:58.279Z,85
2022-09-04T22:38:23.490Z,85
2022-09-04T22:41:48.672Z,85
2022-09-04T22:45:13.874Z,86
2022-09-04T22:48:39.036Z,85
2022-09-04T22:52:09.832Z,85
2022-09-04T22:55:39.911Z,85
2022-09-04T22:58:54.610Z,85
2022-09-04T23:02:19.828Z,85
2022-09-04T23:05:44.980Z,85
2022-09-04T23:12:51.379Z,85
2022-09-04T23:13:55.679Z,85
2022-09-04T23:16:00.592Z,85
2022-09-04T23:20:02.032Z,85
2022-09-04T23:26:40.042Z,84
2022-09-04T23:26:40.876Z,85
2022-09-04T23:29:44.749Z,84
2022-09-04T23:33:06.451Z,83
2022-09-04T23:36:33.300Z,84
2022-09-04T23:39:56.937Z,84
2022-09-04T23:43:22.014Z,84
2022-09-04T23:46:47.316Z,84
2022-09-04T23:50:12.395Z,85
2022-09-04T23:53:37.567Z,85
2022-09-04T23:57:03.346Z,85
